Time;durP1;ratioP1;P1;durP2;ratioP2;P2;SDS_P1;SDS_P2;PMS_P1;PMS_P2;Temp;Humidity;BMP_temperature;BMP_pressure;BME280_temperature;BME280_humidity;BME280_pressure;Samples;Min_cycle;Max_cycle;Signal;HPM_P1;HPM_P2
2021/07/13 00:02:24;;;;;;;;;;;18.70;99.90;;;;;;4995357;28;19910;-86
2021/07/13 00:04:50;;;;;;;;;;;18.70;99.90;;;;;;4995855;28;20016;-87
2021/07/13 00:07:16;;;;;;;;;;;18.70;99.90;;;;;;4995482;28;19913;-86
2021/07/13 00:09:41;;;;;;;;;;;18.80;99.90;;;;;;5013302;28;19910;-87
2021/07/13 00:12:07;;;;;;;;;;;18.80;99.90;;;;;;4995575;28;19944;-87
2021/07/13 00:14:32;;;;;;;;;;;18.70;99.90;;;;;;4995287;28;19910;-87
2021/07/13 00:16:59;;;;;;;;;;;18.70;99.90;;;;;;4995774;28;20368;-86
2021/07/13 00:19:25;;;;;;;;;;;18.60;99.90;;;;;;4995649;28;19910;-86
2021/07/13 00:21:50;;;;;;;;;;;18.60;99.90;;;;;;4995781;28;19916;-86
2021/07/13 00:24:16;;;;;;;;;;;18.50;99.90;;;;;;4995709;28;20562;-87
2021/07/13 00:26:41;;;;;;;;;;;18.50;99.90;;;;;;4995529;28;19956;-89
2021/07/13 00:29:07;;;;;;;;;;;18.50;99.90;;;;;;4995468;28;20000;-89
2021/07/13 00:31:33;;;;;;;;;;;18.50;99.90;;;;;;4995612;28;19987;-88
2021/07/13 00:33:58;;;;;;;;;;;18.40;99.90;;;;;;5013054;28;19913;-88
2021/07/13 00:36:24;;;;;;;;;;;18.30;99.90;;;;;;5012668;28;19917;-86
2021/07/13 00:38:50;;;;;;;;;;;18.30;99.90;;;;;;4995243;28;19909;-87
2021/07/13 00:41:15;;;;;;;;;;;18.20;99.90;;;;;;4995476;28;19909;-88
2021/07/13 00:43:41;;;;;;;;;;;18.10;99.90;;;;;;5013069;28;20360;-86
2021/07/13 00:46:06;;;;;;;;;;;17.90;99.90;;;;;;4995262;28;19917;-87
2021/07/13 00:48:32;;;;;;;;;;;17.80;99.90;;;;;;4995025;28;20395;-87
2021/07/13 00:50:58;;;;;;;;;;;17.70;99.90;;;;;;4995460;28;19988;-87
2021/07/13 00:53:23;;;;;;;;;;;17.60;99.90;;;;;;5013227;28;19999;-87
2021/07/13 00:55:49;;;;;;;;;;;17.50;99.90;;;;;;5013039;28;19909;-87
2021/07/13 00:58:15;;;;;;;;;;;17.40;99.90;;;;;;4995237;28;19976;-88
2021/07/13 01:00:40;;;;;;;;;;;17.40;99.90;;;;;;4996880;28;20265;-87
2021/07/13 01:03:06;;;;;;;;;;;17.30;99.90;;;;;;4998865;28;20004;-88
2021/07/13 01:05:33;;;;;;;;;;;17.30;99.90;;;;;;4999454;28;19918;-87
2021/07/13 01:08:17;;;;;;;;;;;17.30;99.90;;;;;;4998746;28;19909;-87
2021/07/13 01:10:52;;;;;;;;;;;17.30;99.90;;;;;;4999054;28;19992;-88
2021/07/13 01:13:35;;;;;;;;;;;17.30;99.90;;;;;;4998504;28;20004;-87
2021/07/13 01:16:13;;;;;;;;;;;17.30;99.90;;;;;;4998670;28;19917;-88
2021/07/13 01:19:08;;;;;;;;;;;17.30;99.90;;;;;;5016362;28;19910;-87
2021/07/13 01:21:39;;;;;;;;;;;17.30;99.90;;;;;;4945922;28;19918;-87
2021/07/13 01:24:19;;;;;;;;;;;17.40;99.90;;;;;;4998383;28;19912;-87
2021/07/13 01:26:49;;;;;;;;;;;17.40;99.90;;;;;;4997999;28;19914;-87
2021/07/13 01:29:16;;;;;;;;;;;17.40;99.90;;;;;;4996442;28;19916;-89
2021/07/13 01:31:43;;;;;;;;;;;17.30;99.90;;;;;;4979018;28;19914;-88
2021/07/13 01:34:16;;;;;;;;;;;17.40;99.90;;;;;;4979152;28;19938;-86
2021/07/13 01:36:53;;;;;;;;;;;17.30;99.90;;;;;;4996557;28;19925;-88
2021/07/13 01:39:19;;;;;;;;;;;17.30;99.90;;;;;;4996315;28;20025;-87
2021/07/13 01:41:48;;;;;;;;;;;17.30;99.90;;;;;;4978792;28;19910;-87
2021/07/13 01:44:15;;;;;;;;;;;17.30;99.90;;;;;;4978585;28;20013;-87
2021/07/13 01:46:41;;;;;;;;;;;17.30;99.90;;;;;;4978274;28;19972;-87
2021/07/13 01:49:07;;;;;;;;;;;17.30;99.90;;;;;;4993149;28;20179;-86
2021/07/13 01:51:33;;;;;;;;;;;17.20;99.90;;;;;;4997944;28;19964;-86
2021/07/13 01:54:02;;;;;;;;;;;17.20;99.90;;;;;;5015498;28;19960;-87
2021/07/13 01:56:28;;;;;;;;;;;17.20;99.90;;;;;;5015067;28;19910;-87
2021/07/13 01:58:54;;;;;;;;;;;17.20;99.90;;;;;;5015329;28;19917;-88
2021/07/13 02:01:21;;;;;;;;;;;17.20;99.90;;;;;;4997302;28;19909;-87
2021/07/13 02:03:48;;;;;;;;;;;17.20;99.90;;;;;;4997514;28;19993;-87
2021/07/13 02:06:17;;;;;;;;;;;17.20;99.90;;;;;;4997479;28;19936;-87
2021/07/13 02:08:43;;;;;;;;;;;17.20;99.90;;;;;;5014996;28;19916;-86
2021/07/13 02:11:10;;;;;;;;;;;17.20;99.90;;;;;;5014938;28;20477;-87
2021/07/13 02:13:35;;;;;;;;;;;17.10;99.90;;;;;;4996650;28;19909;-87
2021/07/13 02:16:01;;;;;;;;;;;17.10;99.90;;;;;;5014770;28;19909;-88
2021/07/13 02:18:27;;;;;;;;;;;17.10;99.90;;;;;;4997314;28;19913;-86
2021/07/13 02:20:53;;;;;;;;;;;17.10;99.90;;;;;;4997553;28;19910;-87
2021/07/13 02:23:19;;;;;;;;;;;17.10;99.90;;;;;;4997495;28;19959;-87
2021/07/13 02:25:47;;;;;;;;;;;17.20;99.90;;;;;;5014849;28;19956;-87
2021/07/13 02:28:18;;;;;;;;;;;17.10;99.90;;;;;;5014593;28;19910;-87
2021/07/13 02:30:50;;;;;;;;;;;17.10;99.90;;;;;;4997273;28;20011;-87
2021/07/13 02:33:18;;;;;;;;;;;17.10;99.90;;;;;;4997208;28;19917;-87
2021/07/13 02:35:47;;;;;;;;;;;17.10;99.90;;;;;;5014513;28;19917;-86
2021/07/13 02:38:13;;;;;;;;;;;17.10;99.90;;;;;;5014336;28;19909;-86
2021/07/13 02:40:39;;;;;;;;;;;17.10;99.90;;;;;;5014644;28;19909;-86
2021/07/13 02:43:05;;;;;;;;;;;17.10;99.90;;;;;;4996982;28;20364;-86
2021/07/13 02:45:32;;;;;;;;;;;17.00;99.90;;;;;;4996694;28;20276;-86
2021/07/13 02:47:59;;;;;;;;;;;17.00;99.90;;;;;;5013941;28;19940;-86
2021/07/13 02:50:25;;;;;;;;;;;16.90;99.90;;;;;;5014180;28;19910;-87
2021/07/13 02:52:51;;;;;;;;;;;16.90;99.90;;;;;;4996698;28;19910;-86
2021/07/13 02:55:18;;;;;;;;;;;16.90;99.90;;;;;;4996766;28;19945;-87
2021/07/13 02:57:45;;;;;;;;;;;16.80;99.90;;;;;;5013965;28;19914;-86
2021/07/13 03:00:12;;;;;;;;;;;16.80;99.90;;;;;;5014151;28;19971;-86
2021/07/13 03:02:39;;;;;;;;;;;16.80;99.90;;;;;;4996342;28;20364;-86
2021/07/13 03:05:05;;;;;;;;;;;16.80;99.90;;;;;;4996782;28;19917;-87
2021/07/13 03:07:32;;;;;;;;;;;16.70;99.90;;;;;;5013818;28;19913;-86
2021/07/13 03:09:58;;;;;;;;;;;16.70;99.90;;;;;;5013905;28;19913;-87
2021/07/13 03:12:24;;;;;;;;;;;16.70;99.90;;;;;;4996459;28;19913;-86
2021/07/13 03:14:51;;;;;;;;;;;16.70;99.90;;;;;;5013689;28;20334;-86
2021/07/13 03:17:17;;;;;;;;;;;16.70;99.90;;;;;;4996082;28;20019;-86
2021/07/13 03:19:44;;;;;;;;;;;16.60;99.90;;;;;;5014014;28;19913;-86
2021/07/13 03:22:16;;;;;;;;;;;16.70;99.90;;;;;;4996268;28;19932;-86
2021/07/13 03:24:42;;;;;;;;;;;16.70;99.90;;;;;;4996259;28;19917;-87
2021/07/13 03:27:08;;;;;;;;;;;16.70;99.90;;;;;;5013523;28;19913;-86
2021/07/13 03:29:35;;;;;;;;;;;16.70;99.90;;;;;;4996307;28;19909;-86
2021/07/13 03:32:01;;;;;;;;;;;16.70;99.90;;;;;;5013634;28;19924;-87
2021/07/13 03:34:27;;;;;;;;;;;16.70;99.90;;;;;;5013643;28;19914;-87
2021/07/13 03:36:53;;;;;;;;;;;16.70;99.90;;;;;;4995881;28;19909;-87
2021/07/13 03:39:18;;;;;;;;;;;16.70;99.90;;;;;;4995823;28;20000;-87
2021/07/13 03:41:44;;;;;;;;;;;16.80;99.90;;;;;;5013529;28;20351;-87
2021/07/13 03:44:10;;;;;;;;;;;16.80;99.90;;;;;;4995915;28;19918;-87
2021/07/13 03:46:36;;;;;;;;;;;16.80;99.90;;;;;;5013234;28;20022;-87
2021/07/13 03:49:03;;;;;;;;;;;16.80;99.90;;;;;;5013034;28;19931;-86
2021/07/13 03:51:38;;;;;;;;;;;16.80;99.90;;;;;;5013337;28;20284;-87
2021/07/13 03:54:04;;;;;;;;;;;16.80;99.90;;;;;;4995724;28;19909;-87
2021/07/13 03:56:29;;;;;;;;;;;16.80;99.90;;;;;;4995567;28;20068;-87
2021/07/13 03:58:55;;;;;;;;;;;16.80;99.90;;;;;;5013143;28;19959;-87
2021/07/13 04:01:21;;;;;;;;;;;16.80;99.90;;;;;;5013035;28;19999;-87
2021/07/13 04:03:46;;;;;;;;;;;16.80;99.90;;;;;;4995766;28;19959;-86
2021/07/13 04:06:12;;;;;;;;;;;16.80;99.90;;;;;;4995306;28;19978;-87
2021/07/13 04:08:37;;;;;;;;;;;16.80;99.90;;;;;;4995451;28;19909;-87
2021/07/13 04:11:05;;;;;;;;;;;16.90;99.90;;;;;;4995858;28;19916;-86
2021/07/13 04:13:30;;;;;;;;;;;16.80;99.90;;;;;;4995447;28;20368;-87
2021/07/13 04:15:56;;;;;;;;;;;16.90;99.90;;;;;;5013242;28;19910;-87
2021/07/13 04:18:21;;;;;;;;;;;16.90;99.90;;;;;;4995282;28;19987;-86
2021/07/13 04:20:47;;;;;;;;;;;16.90;99.90;;;;;;4995449;28;20020;-87
2021/07/13 04:23:12;;;;;;;;;;;16.90;99.90;;;;;;5013090;28;19916;-86
2021/07/13 04:25:38;;;;;;;;;;;16.90;99.90;;;;;;5013002;28;19924;-87
2021/07/13 04:28:03;;;;;;;;;;;17.00;99.90;;;;;;5012743;28;19910;-88
2021/07/13 04:30:29;;;;;;;;;;;17.00;99.90;;;;;;5013112;28;19909;-88
2021/07/13 04:32:54;;;;;;;;;;;17.10;99.90;;;;;;4995185;28;19918;-87
2021/07/13 04:35:20;;;;;;;;;;;17.20;99.90;;;;;;4996446;28;19913;-87
2021/07/13 04:37:45;;;;;;;;;;;17.20;99.90;;;;;;5016685;28;20284;-87
2021/07/13 04:40:11;;;;;;;;;;;17.30;99.90;;;;;;4999307;28;19909;-87
2021/07/13 04:42:37;;;;;;;;;;;17.40;99.90;;;;;;4999311;28;19913;-87
2021/07/13 04:45:02;;;;;;;;;;;17.40;99.90;;;;;;5016841;28;19984;-87
2021/07/13 04:47:28;;;;;;;;;;;17.50;99.90;;;;;;4998828;28;20418;-87
2021/07/13 04:49:53;;;;;;;;;;;17.50;99.90;;;;;;4999233;28;19910;-87
2021/07/13 04:52:22;;;;;;;;;;;17.50;99.90;;;;;;4999126;28;19914;-87
2021/07/13 04:54:48;;;;;;;;;;;17.60;99.90;;;;;;4999145;28;20387;-87
2021/07/13 04:57:13;;;;;;;;;;;17.60;99.90;;;;;;5016520;28;19910;-87
2021/07/13 04:59:39;;;;;;;;;;;17.60;99.90;;;;;;4999197;28;19910;-87
2021/07/13 05:02:05;;;;;;;;;;;17.50;99.90;;;;;;5016543;28;20024;-87
2021/07/13 05:04:30;;;;;;;;;;;17.50;99.90;;;;;;4998742;28;19910;-87
2021/07/13 05:06:55;;;;;;;;;;;17.50;99.90;;;;;;4998520;28;19980;-87
2021/07/13 05:09:21;;;;;;;;;;;17.40;99.90;;;;;;5016268;28;19998;-87
2021/07/13 05:11:47;;;;;;;;;;;17.40;99.90;;;;;;4998682;28;19913;-87
2021/07/13 05:14:13;;;;;;;;;;;17.40;99.90;;;;;;4998392;28;19944;-87
2021/07/13 05:16:38;;;;;;;;;;;17.50;99.90;;;;;;4998499;28;19997;-87
2021/07/13 05:19:04;;;;;;;;;;;17.50;99.90;;;;;;4998595;28;20044;-87
2021/07/13 05:21:29;;;;;;;;;;;17.50;99.90;;;;;;4998816;28;19910;-87
2021/07/13 05:23:55;;;;;;;;;;;17.50;99.90;;;;;;4998726;28;20344;-87
2021/07/13 05:26:20;;;;;;;;;;;17.60;99.90;;;;;;4998275;28;20328;-87
2021/07/13 05:28:50;;;;;;;;;;;17.60;99.90;;;;;;4998296;28;19910;-87
2021/07/13 05:31:15;;;;;;;;;;;17.70;99.90;;;;;;4998368;28;19925;-87
2021/07/13 05:33:41;;;;;;;;;;;17.70;99.90;;;;;;5015998;28;19914;-87
2021/07/13 05:36:06;;;;;;;;;;;17.80;99.90;;;;;;4998149;28;19935;-87
2021/07/13 05:38:31;;;;;;;;;;;17.90;99.90;;;;;;4998192;28;19917;-87
2021/07/13 05:40:57;;;;;;;;;;;18.00;99.90;;;;;;5015979;28;19920;-87
2021/07/13 05:43:22;;;;;;;;;;;18.10;99.90;;;;;;4998267;28;19916;-88
2021/07/13 05:45:50;;;;;;;;;;;18.10;99.90;;;;;;4997990;28;20000;-86
2021/07/13 05:48:16;;;;;;;;;;;18.10;99.90;;;;;;4996505;28;19959;-87
2021/07/13 05:50:44;;;;;;;;;;;18.10;99.90;;;;;;4997978;28;19910;-87
2021/07/13 05:53:11;;;;;;;;;;;18.10;99.90;;;;;;5015712;28;19917;-87
2021/07/13 05:55:36;;;;;;;;;;;18.10;99.90;;;;;;4998161;28;19909;-86
2021/07/13 05:58:02;;;;;;;;;;;18.10;99.90;;;;;;4997819;28;19921;-87
2021/07/13 06:00:39;;;;;;;;;;;18.10;99.90;;;;;;4998010;28;19910;-86
2021/07/13 06:03:12;;;;;;;;;;;18.10;99.90;;;;;;5015434;28;19909;-88
2021/07/13 06:05:38;;;;;;;;;;;18.10;99.90;;;;;;4997777;28;19913;-86
2021/07/13 06:08:04;;;;;;;;;;;18.10;99.90;;;;;;5015097;28;19910;-86
2021/07/13 06:10:34;;;;;;;;;;;18.10;99.90;;;;;;4997861;28;19917;-86
2021/07/13 06:13:00;;;;;;;;;;;18.00;99.90;;;;;;4997550;28;19909;-87
2021/07/13 06:15:25;;;;;;;;;;;18.00;99.90;;;;;;4997549;28;19992;-86
2021/07/13 06:17:56;;;;;;;;;;;18.00;99.90;;;;;;4997573;28;19913;-86
2021/07/13 06:20:33;;;;;;;;;;;18.00;99.90;;;;;;4997884;28;19960;-86
2021/07/13 06:22:59;;;;;;;;;;;18.00;99.90;;;;;;4997687;28;20291;-86
2021/07/13 06:25:26;;;;;;;;;;;18.00;99.90;;;;;;5015154;28;20012;-86
2021/07/13 06:27:51;;;;;;;;;;;18.00;99.90;;;;;;4997576;28;19909;-87
2021/07/13 06:30:18;;;;;;;;;;;18.10;99.90;;;;;;4997576;28;19948;-87
2021/07/13 06:32:44;;;;;;;;;;;18.10;99.90;;;;;;5014923;28;20289;-87
2021/07/13 06:35:09;;;;;;;;;;;18.10;99.90;;;;;;5014819;28;19916;-87
2021/07/13 06:37:35;;;;;;;;;;;18.10;99.90;;;;;;4996367;28;19917;-87
2021/07/13 06:40:06;;;;;;;;;;;18.10;99.90;;;;;;5014261;28;20290;-85
2021/07/13 06:42:31;;;;;;;;;;;18.00;99.90;;;;;;5014693;28;20319;-86
2021/07/13 06:44:57;;;;;;;;;;;18.00;99.90;;;;;;4997286;28;19921;-86
2021/07/13 06:47:27;;;;;;;;;;;18.00;99.90;;;;;;4996538;28;19919;-86
2021/07/13 06:49:53;;;;;;;;;;;17.90;99.90;;;;;;4994691;28;20483;-86
2021/07/13 06:52:18;;;;;;;;;;;17.80;99.90;;;;;;5014391;28;19988;-86
2021/07/13 06:54:44;;;;;;;;;;;17.80;99.90;;;;;;4996921;28;19909;-87
2021/07/13 06:57:12;;;;;;;;;;;17.80;99.90;;;;;;4996941;28;19924;-86
2021/07/13 06:59:38;;;;;;;;;;;17.80;99.90;;;;;;5013995;28;19919;-86
2021/07/13 07:02:03;;;;;;;;;;;17.80;99.90;;;;;;5014330;28;19914;-86
2021/07/13 07:04:29;;;;;;;;;;;17.70;99.90;;;;;;5014148;28;19909;-87
2021/07/13 07:06:54;;;;;;;;;;;17.70;99.90;;;;;;4996736;28;19936;-87
2021/07/13 07:09:20;;;;;;;;;;;17.70;99.90;;;;;;4996721;28;19909;-87
2021/07/13 07:11:45;;;;;;;;;;;17.70;99.90;;;;;;4996842;28;19953;-88
2021/07/13 07:14:11;;;;;;;;;;;17.70;99.90;;;;;;5014267;28;19959;-88
2021/07/13 07:16:36;;;;;;;;;;;17.80;99.90;;;;;;4996499;28;20287;-88
2021/07/13 07:19:02;;;;;;;;;;;17.80;99.90;;;;;;4996486;28;19919;-87
2021/07/13 07:21:30;;;;;;;;;;;17.80;99.90;;;;;;4996511;28;19919;-86
2021/07/13 07:23:56;;;;;;;;;;;17.80;99.90;;;;;;4996431;28;20435;-87
2021/07/13 07:26:22;;;;;;;;;;;17.80;99.90;;;;;;4996367;28;20073;-87
2021/07/13 07:28:47;;;;;;;;;;;17.90;99.90;;;;;;4996347;28;19917;-88
2021/07/13 07:31:14;;;;;;;;;;;17.80;99.90;;;;;;4996155;28;19913;-88
2021/07/13 07:33:40;;;;;;;;;;;17.70;99.90;;;;;;4996973;28;19913;-88
2021/07/13 07:36:06;;;;;;;;;;;17.70;99.90;;;;;;5013925;28;19909;-89
2021/07/13 07:38:31;;;;;;;;;;;17.70;99.90;;;;;;5013367;28;19910;-84
2021/07/13 07:40:57;;;;;;;;;;;17.70;99.90;;;;;;5013311;28;19913;-84
2021/07/13 07:43:22;;;;;;;;;;;17.60;99.90;;;;;;4995700;28;19984;-85
2021/07/13 07:45:48;;;;;;;;;;;17.60;99.90;;;;;;5013214;28;19917;-84
2021/07/13 07:48:14;;;;;;;;;;;17.60;99.90;;;;;;5012383;28;19963;-85
2021/07/13 07:50:40;;;;;;;;;;;17.60;99.90;;;;;;4995816;28;19910;-86
2021/07/13 07:53:05;;;;;;;;;;;17.60;99.90;;;;;;4995630;28;19916;-86
2021/07/13 07:55:31;;;;;;;;;;;17.70;99.90;;;;;;5013307;28;20149;-86
2021/07/13 07:57:57;;;;;;;;;;;17.70;99.90;;;;;;5012874;28;20360;-85
2021/07/13 08:00:22;;;;;;;;;;;17.70;99.90;;;;;;5012839;28;19909;-85
2021/07/13 08:02:48;;;;;;;;;;;17.70;99.90;;;;;;5013076;28;19963;-85
2021/07/13 08:05:14;;;;;;;;;;;17.70;99.90;;;;;;5013202;28;19910;-84
2021/07/13 08:07:40;;;;;;;;;;;17.60;99.90;;;;;;4994992;28;19917;-85
2021/07/13 08:10:06;;;;;;;;;;;17.60;99.90;;;;;;4994703;28;20351;-84
2021/07/13 08:12:32;;;;;;;;;;;17.60;99.90;;;;;;5012445;28;19910;-83
2021/07/13 08:14:57;;;;;;;;;;;17.50;99.90;;;;;;5012848;28;19939;-84
2021/07/13 08:17:23;;;;;;;;;;;17.50;99.90;;;;;;5012597;28;19910;-84
2021/07/13 08:19:48;;;;;;;;;;;17.50;99.90;;;;;;5012939;28;20415;-83
2021/07/13 08:22:14;;;;;;;;;;;17.50;99.90;;;;;;5011843;28;19925;-84
2021/07/13 08:24:39;;;;;;;;;;;17.40;99.90;;;;;;5011738;28;20368;-84
2021/07/13 08:27:06;;;;;;;;;;;17.40;99.90;;;;;;5012772;28;19936;-86
2021/07/13 08:29:32;;;;;;;;;;;17.40;99.90;;;;;;4995266;28;19909;-85
2021/07/13 08:31:59;;;;;;;;;;;17.40;99.90;;;;;;4995066;28;19925;-84
2021/07/13 08:34:25;;;;;;;;;;;17.40;99.90;;;;;;5013007;28;19913;-84
2021/07/13 08:36:51;;;;;;;;;;;17.40;99.90;;;;;;4995118;28;19910;-85
2021/07/13 08:39:16;;;;;;;;;;;17.40;99.90;;;;;;5012792;28;19960;-85
2021/07/13 08:41:43;;;;;;;;;;;17.30;99.90;;;;;;5012749;28;19917;-84
2021/07/13 08:44:08;;;;;;;;;;;17.30;99.90;;;;;;5012742;28;19910;-83
2021/07/13 08:46:37;;;;;;;;;;;17.30;99.90;;;;;;5012508;28;20335;-85
2021/07/13 08:49:03;;;;;;;;;;;17.20;99.90;;;;;;4994053;28;19920;-85
2021/07/13 08:51:28;;;;;;;;;;;17.10;99.90;;;;;;4993655;28;19949;-84
2021/07/13 08:53:54;;;;;;;;;;;17.10;99.90;;;;;;5012355;28;19941;-85
2021/07/13 08:56:20;;;;;;;;;;;17.10;99.90;;;;;;5011819;28;19909;-85
2021/07/13 08:58:45;;;;;;;;;;;17.00;99.90;;;;;;5013092;28;19910;-85
2021/07/13 09:01:12;;;;;;;;;;;17.00;99.90;;;;;;4995106;28;20435;-86
2021/07/13 09:03:51;;;;;;;;;;;17.00;99.90;;;;;;4994963;28;20416;-86
2021/07/13 09:06:17;;;;;;;;;;;16.90;99.90;;;;;;4994991;28;19913;-86
2021/07/13 09:08:43;;;;;;;;;;;16.90;99.90;;;;;;4994900;28;19909;-85
2021/07/13 09:11:12;;;;;;;;;;;16.80;99.90;;;;;;4995270;28;19972;-85
2021/07/13 09:13:42;;;;;;;;;;;16.80;99.90;;;;;;5012459;28;20003;-84
2021/07/13 09:16:09;;;;;;;;;;;16.70;99.90;;;;;;4999762;28;20604;-84
2021/07/13 09:18:35;;;;;;;;;;;16.70;99.90;;;;;;5012808;28;20361;-84
2021/07/13 09:21:04;;;;;;;;;;;16.60;99.90;;;;;;5013440;28;19996;-84
2021/07/13 09:23:30;;;;;;;;;;;16.60;99.90;;;;;;4999089;28;19953;-83
2021/07/13 09:25:56;;;;;;;;;;;16.50;99.90;;;;;;5014626;28;19961;-84
2021/07/13 09:28:22;;;;;;;;;;;16.50;99.90;;;;;;5016496;28;19910;-83
2021/07/13 09:30:50;;;;;;;;;;;16.30;99.90;;;;;;4999431;28;20000;-84
2021/07/13 09:33:23;;;;;;;;;;;16.20;99.90;;;;;;4998689;28;19921;-84
2021/07/13 09:36:00;;;;;;;;;;;16.10;99.90;;;;;;4998707;28;19953;-84
2021/07/13 09:38:27;;;;;;;;;;;16.00;99.90;;;;;;4998205;28;20021;-86
2021/07/13 09:41:07;;;;;;;;;;;15.80;99.90;;;;;;4997974;28;19909;-85
2021/07/13 09:43:40;;;;;;;;;;;15.70;99.90;;;;;;4998245;28;19920;-86
2021/07/13 09:46:24;;;;;;;;;;;15.60;99.90;;;;;;4997841;28;19914;-83
2021/07/13 09:49:05;;;;;;;;;;;15.50;99.90;;;;;;4997382;28;19913;-85
2021/07/13 09:51:30;;;;;;;;;;;15.40;99.90;;;;;;4998110;28;20364;-85
2021/07/13 09:53:56;;;;;;;;;;;15.30;99.90;;;;;;5015587;28;19916;-85
2021/07/13 09:56:43;;;;;;;;;;;15.30;99.90;;;;;;4998034;28;19960;-85
2021/07/13 09:59:08;;;;;;;;;;;15.20;99.90;;;;;;4998004;28;19913;-85
2021/07/13 10:01:34;;;;;;;;;;;15.10;99.90;;;;;;5014877;28;19917;-86
2021/07/13 10:04:00;;;;;;;;;;;15.10;99.90;;;;;;4997594;28;19909;-85
2021/07/13 10:06:27;;;;;;;;;;;15.00;99.90;;;;;;5014841;28;19914;-85
2021/07/13 10:08:53;;;;;;;;;;;15.00;99.90;;;;;;4997378;28;19909;-85
2021/07/13 10:11:19;;;;;;;;;;;15.10;99.90;;;;;;5013860;28;20012;-84
2021/07/13 10:13:44;;;;;;;;;;;15.10;99.90;;;;;;5003679;28;19936;-84
2021/07/13 10:16:10;;;;;;;;;;;15.20;99.90;;;;;;4995581;28;19909;-86
2021/07/13 10:18:35;;;;;;;;;;;15.20;99.90;;;;;;4995541;28;19922;-85
2021/07/13 10:21:01;;;;;;;;;;;15.30;99.90;;;;;;4995649;28;20005;-84
2021/07/13 10:23:28;;;;;;;;;;;15.30;99.90;;;;;;4995729;28;20520;-85
2021/07/13 10:25:54;;;;;;;;;;;15.50;99.90;;;;;;4995858;28;19924;-85
2021/07/13 10:28:21;;;;;;;;;;;15.50;99.90;;;;;;5015070;28;19997;-84
2021/07/13 10:30:47;;;;;;;;;;;15.50;99.90;;;;;;4997615;28;19916;-86
2021/07/13 10:33:31;;;;;;;;;;;15.50;99.90;;;;;;4996092;28;20405;-85
2021/07/13 10:36:16;;;;;;;;;;;15.50;99.90;;;;;;5014412;28;19910;-85
2021/07/13 10:38:42;;;;;;;;;;;15.50;99.90;;;;;;5014111;28;19909;-84
2021/07/13 10:41:10;;;;;;;;;;;15.70;99.90;;;;;;5014511;28;19914;-85
2021/07/13 10:43:44;;;;;;;;;;;15.80;99.90;;;;;;5014512;28;20402;-87
2021/07/13 10:46:11;;;;;;;;;;;15.80;99.90;;;;;;4996663;28;19913;-86
2021/07/13 10:48:40;;;;;;;;;;;15.90;99.90;;;;;;4996253;28;19909;-88
2021/07/13 10:51:07;;;;;;;;;;;15.90;99.90;;;;;;5014297;28;19917;-86
2021/07/13 10:53:32;;;;;;;;;;;15.90;99.90;;;;;;4996792;28;19909;-85
2021/07/13 10:55:58;;;;;;;;;;;16.00;99.90;;;;;;4996507;28;20343;-85
2021/07/13 10:58:26;;;;;;;;;;;16.10;99.90;;;;;;5014044;28;19909;-85
2021/07/13 11:00:54;;;;;;;;;;;16.20;99.90;;;;;;4996379;28;19909;-85
2021/07/13 11:03:31;;;;;;;;;;;16.20;99.90;;;;;;5013991;28;20372;-85
2021/07/13 11:05:58;;;;;;;;;;;16.40;99.90;;;;;;5013889;28;20003;-85
2021/07/13 11:08:38;;;;;;;;;;;16.60;99.90;;;;;;5013613;28;19917;-85
2021/07/13 11:11:04;;;;;;;;;;;16.70;99.90;;;;;;5013807;28;20365;-86
2021/07/13 11:13:30;;;;;;;;;;;16.70;99.90;;;;;;4995438;28;19916;-85
2021/07/13 11:15:56;;;;;;;;;;;16.80;99.90;;;;;;4996006;28;19909;-87
2021/07/13 11:18:28;;;;;;;;;;;16.80;99.90;;;;;;4995821;28;20324;-86
2021/07/13 11:20:53;;;;;;;;;;;16.80;99.90;;;;;;4996025;28;19909;-87
2021/07/13 11:23:26;;;;;;;;;;;16.80;99.90;;;;;;5013642;28;19910;-85
2021/07/13 11:26:01;;;;;;;;;;;16.80;99.90;;;;;;4995851;28;19913;-86
2021/07/13 11:28:27;;;;;;;;;;;16.70;99.90;;;;;;4995896;28;19909;-85
2021/07/13 11:30:54;;;;;;;;;;;16.70;99.90;;;;;;4995890;28;20252;-85
2021/07/13 11:33:24;;;;;;;;;;;16.70;99.90;;;;;;5012517;28;19917;-86
2021/07/13 11:35:51;;;;;;;;;;;16.70;99.90;;;;;;5013207;28;19914;-86
2021/07/13 11:38:27;;;;;;;;;;;16.70;99.90;;;;;;5013232;28;19917;-86
2021/07/13 11:41:08;;;;;;;;;;;16.60;99.90;;;;;;5013309;28;20425;-86
2021/07/13 11:43:33;;;;;;;;;;;16.60;99.90;;;;;;4995709;28;19910;-86
2021/07/13 11:46:14;;;;;;;;;;;16.70;99.90;;;;;;4995613;28;19913;-86
2021/07/13 11:48:40;;;;;;;;;;;16.60;99.90;;;;;;4994573;28;19913;-86
2021/07/13 11:51:08;;;;;;;;;;;16.60;99.90;;;;;;4995576;28;19917;-85
2021/07/13 11:53:34;;;;;;;;;;;16.60;99.90;;;;;;4995570;28;19909;-85
2021/07/13 11:56:00;;;;;;;;;;;16.60;99.90;;;;;;5013007;28;20341;-85
2021/07/13 11:58:29;;;;;;;;;;;16.70;99.90;;;;;;5012932;28;20380;-86
2021/07/13 12:01:13;;;;;;;;;;;16.70;99.90;;;;;;4994880;28;19916;-87
2021/07/13 12:03:39;;;;;;;;;;;16.70;99.90;;;;;;4995419;28;19909;-85
2021/07/13 12:06:11;;;;;;;;;;;16.90;99.90;;;;;;5012660;28;19997;-86
2021/07/13 12:08:37;;;;;;;;;;;17.00;99.90;;;;;;4995219;28;19992;-85
2021/07/13 12:11:04;;;;;;;;;;;17.10;99.90;;;;;;4995558;28;19949;-85
2021/07/13 12:13:29;;;;;;;;;;;17.20;99.90;;;;;;4994487;28;20364;-84
2021/07/13 12:16:33;;;;;;;;;;;17.30;99.90;;;;;;5012735;28;19909;-86
2021/07/13 12:19:00;;;;;;;;;;;17.40;99.90;;;;;;4898184;29;19911;-85
2021/07/13 12:21:26;;;;;;;;;;;17.40;99.90;;;;;;4914225;29;19939;-85
2021/07/13 12:23:52;;;;;;;;;;;17.40;99.90;;;;;;4960557;28;19910;-85
2021/07/13 12:26:25;;;;;;;;;;;17.50;99.90;;;;;;4994736;28;19917;-86
2021/07/13 12:29:07;;;;;;;;;;;17.50;99.90;;;;;;5012662;28;19909;-85
2021/07/13 12:31:37;;;;;;;;;;;17.60;99.90;;;;;;4994856;28;19976;-84
2021/07/13 12:34:19;;;;;;;;;;;17.60;99.90;;;;;;4994938;28;19963;-85
2021/07/13 12:36:45;;;;;;;;;;;17.80;99.90;;;;;;4994764;28;19932;-85
2021/07/13 12:39:12;;;;;;;;;;;17.90;99.90;;;;;;5012721;28;19910;-84
2021/07/13 12:41:38;;;;;;;;;;;18.00;99.90;;;;;;4995134;28;19914;-85
2021/07/13 12:44:23;;;;;;;;;;;18.10;99.90;;;;;;5012623;28;19910;-85
2021/07/13 12:46:49;;;;;;;;;;;18.10;99.90;;;;;;4994509;28;19913;-85
2021/07/13 12:49:14;;;;;;;;;;;18.00;99.90;;;;;;5011727;28;20008;-85
2021/07/13 12:51:40;;;;;;;;;;;17.80;99.90;;;;;;4995136;28;19910;-86
2021/07/13 12:54:06;;;;;;;;;;;17.70;99.90;;;;;;4995238;28;19913;-85
2021/07/13 12:56:32;;;;;;;;;;;17.60;99.90;;;;;;5013633;28;19920;-84
2021/07/13 12:59:08;;;;;;;;;;;17.50;99.90;;;;;;4998607;28;19960;-86
2021/07/13 13:01:34;;;;;;;;;;;17.50;99.90;;;;;;4999169;28;19910;-83
2021/07/13 13:04:13;;;;;;;;;;;17.40;99.90;;;;;;4998752;28;20092;-86
2021/07/13 13:06:39;;;;;;;;;;;17.30;99.90;;;;;;4998630;28;19913;-85
2021/07/13 13:09:12;;;;;;;;;;;17.50;99.90;;;;;;4997629;28;19917;-85
2021/07/13 13:11:38;;;;;;;;;;;17.50;99.90;;;;;;4998274;28;19920;-86
2021/07/13 13:14:06;;;;;;;;;;;17.50;99.90;;;;;;4997496;28;19916;-84
2021/07/13 13:16:34;;;;;;;;;;;17.60;99.90;;;;;;5015649;28;19910;-84
2021/07/13 13:19:00;;;;;;;;;;;17.50;99.90;;;;;;5015934;28;19955;-84
2021/07/13 13:21:27;;;;;;;;;;;17.50;99.90;;;;;;4998596;28;19910;-85
2021/07/13 13:23:53;;;;;;;;;;;17.60;99.90;;;;;;4998303;28;19932;-84
2021/07/13 13:26:19;;;;;;;;;;;17.60;99.90;;;;;;4998125;28;20008;-84
2021/07/13 13:28:44;;;;;;;;;;;17.60;99.90;;;;;;5015752;28;20399;-85
2021/07/13 13:31:10;;;;;;;;;;;17.60;99.90;;;;;;4997984;28;19909;-84
2021/07/13 13:33:38;;;;;;;;;;;17.70;99.90;;;;;;5016011;28;20360;-84
2021/07/13 13:38:55;;;;;;;;;;;17.90;99.90;;;;;;5015819;28;19913;-83
2021/07/13 13:41:21;;;;;;;;;;;17.90;99.90;;;;;;5016092;28;19916;-84
2021/07/13 13:43:47;;;;;;;;;;;17.80;99.90;;;;;;4998468;28;19910;-83
2021/07/13 13:46:12;;;;;;;;;;;17.90;99.90;;;;;;4997815;28;19919;-85
2021/07/13 13:48:38;;;;;;;;;;;17.90;99.90;;;;;;4994673;28;19924;-84
2021/07/13 13:51:04;;;;;;;;;;;17.90;99.90;;;;;;4997787;28;20257;-85
2021/07/13 13:53:30;;;;;;;;;;;17.90;99.90;;;;;;4997941;28;19909;-85
2021/07/13 13:55:55;;;;;;;;;;;17.90;99.90;;;;;;4997974;28;19909;-85
2021/07/13 13:58:21;;;;;;;;;;;17.90;99.90;;;;;;5015177;28;19909;-84
2021/07/13 14:00:46;;;;;;;;;;;17.80;99.90;;;;;;5015450;28;19910;-84
2021/07/13 14:03:12;;;;;;;;;;;17.90;99.90;;;;;;4997666;28;19913;-85
2021/07/13 14:05:37;;;;;;;;;;;17.90;99.90;;;;;;5013923;28;20002;-85
2021/07/13 14:08:03;;;;;;;;;;;18.00;99.90;;;;;;5011723;28;19921;-84
2021/07/13 14:10:29;;;;;;;;;;;18.10;99.90;;;;;;4995599;28;19909;-85
2021/07/13 14:12:54;;;;;;;;;;;18.10;99.90;;;;;;5012216;28;19909;-84
2021/07/13 14:15:20;;;;;;;;;;;18.10;99.90;;;;;;5012887;28;19917;-84
2021/07/13 14:17:46;;;;;;;;;;;18.00;99.90;;;;;;4994957;28;20000;-84
2021/07/13 14:20:12;;;;;;;;;;;18.00;99.90;;;;;;5013214;28;19960;-84
2021/07/13 14:22:39;;;;;;;;;;;17.90;99.90;;;;;;5014574;28;19920;-84